createdAt,value
2019-02-16T00:00:51.285Z,6.90
2019-02-16T00:03:35.282Z,6.87
2019-02-16T00:06:08.526Z,8.70
2019-02-16T00:08:51.579Z,6.10
2019-02-16T00:11:25.432Z,7.27
2019-02-16T00:13:58.841Z,6.63
2019-02-16T00:16:32.989Z,6.00
2019-02-16T00:19:15.468Z,7.93
2019-02-16T00:21:49.695Z,7.17
2019-02-16T00:24:31.747Z,8.90
2019-02-16T00:27:05.019Z,8.30
2019-02-16T00:29:38.821Z,6.23
2019-02-16T00:32:12.284Z,8.20
2019-02-16T00:34:46.256Z,5.77
2019-02-16T00:37:19.636Z,6.00
2019-02-16T00:39:53.534Z,6.13
2019-02-16T00:42:26.615Z,8.47
2019-02-16T00:45:00.464Z,7.77
2019-02-16T00:47:33.942Z,6.00
2019-02-16T00:50:07.500Z,7.27
2019-02-16T00:52:41.070Z,6.77
2019-02-16T00:55:14.642Z,7.90
2019-02-16T00:57:47.660Z,8.00
2019-02-16T01:00:31.617Z,7.23
2019-02-16T01:03:05.077Z,6.63
2019-02-16T01:05:38.671Z,8.10
2019-02-16T01:08:12.482Z,6.23
2019-02-16T01:10:45.893Z,5.77
2019-02-16T01:13:31.153Z,7.50
2019-02-16T01:16:04.159Z,6.83
2019-02-16T01:18:37.339Z,7.83
2019-02-16T01:21:10.903Z,6.87
2019-02-16T01:23:43.647Z,7.13
2019-02-16T01:26:25.863Z,5.33
2019-02-16T01:28:59.413Z,6.80
2019-02-16T01:31:32.511Z,5.80
2019-02-16T01:34:06.398Z,6.27
2019-02-16T01:36:40.587Z,5.83
2019-02-16T01:39:14.040Z,9.43
2019-02-16T01:41:47.891Z,6.87
2019-02-16T01:44:30.584Z,8.17
2019-02-16T01:47:04.072Z,7.63
2019-02-16T01:49:38.413Z,5.73
2019-02-16T01:52:20.594Z,6.17
2019-02-16T01:54:53.724Z,5.10
2019-02-16T01:57:27.543Z,6.83
2019-02-16T02:00:01.271Z,6.90
2019-02-16T02:02:35.756Z,6.13
2019-02-16T02:05:09.226Z,5.13
2019-02-16T02:07:51.791Z,6.93
2019-02-16T02:10:34.273Z,5.80
2019-02-16T02:13:07.802Z,6.73
2019-02-16T02:15:41.302Z,8.47
2019-02-16T02:18:15.118Z,7.60
2019-02-16T02:20:48.538Z,7.53
2019-02-16T02:23:23.680Z,7.47
2019-02-16T02:25:57.050Z,8.63
2019-02-16T02:28:30.197Z,10.30
2019-02-16T02:31:12.385Z,7.97
2019-02-16T02:33:46.530Z,6.70
2019-02-16T02:36:28.493Z,8.40
2019-02-16T02:39:01.889Z,7.33
2019-02-16T02:41:45.188Z,6.00
2019-02-16T02:44:19.024Z,9.97
2019-02-16T02:47:03.796Z,7.57
2019-02-16T02:49:37.728Z,6.30
2019-02-16T02:52:11.469Z,8.47
2019-02-16T02:54:45.003Z,9.37
2019-02-16T02:57:18.770Z,7.20
2019-02-16T03:00:01.724Z,8.73
2019-02-16T03:02:36.579Z,6.27
2019-02-16T03:05:10.563Z,7.10
2019-02-16T03:07:53.241Z,6.47
2019-02-16T03:10:35.901Z,7.27
2019-02-16T03:13:09.312Z,6.97
2019-02-16T03:15:42.743Z,7.47
2019-02-16T03:18:16.459Z,6.43
2019-02-16T03:20:50.606Z,9.03
2019-02-16T03:23:24.287Z,6.73
2019-02-16T03:26:13.574Z,6.27
2019-02-16T03:29:25.804Z,7.87
2019-02-16T03:32:29.032Z,6.03
2019-02-16T03:35:43.107Z,7.97
2019-02-16T03:38:44.173Z,5.70
2019-02-16T03:41:17.968Z,8.83
2019-02-16T03:43:52.204Z,6.53
2019-02-16T03:46:34.894Z,9.60
2019-02-16T03:49:23.730Z,7.00
2019-02-16T03:52:13.225Z,9.23
2019-02-16T03:54:42.232Z,8.23
2019-02-16T03:57:15.962Z,6.93
2019-02-16T03:59:48.036Z,7.07
2019-02-16T04:02:21.868Z,6.33
2019-02-16T04:04:54.963Z,7.87
2019-02-16T04:07:37.501Z,7.63
2019-02-16T04:10:19.910Z,6.77
2019-02-16T04:12:53.149Z,6.17
2019-02-16T04:15:26.977Z,6.73
2019-02-16T04:18:00.770Z,7.30
2019-02-16T04:20:33.919Z,6.33
2019-02-16T04:23:07.009Z,8.30
2019-02-16T04:25:48.853Z,5.53
2019-02-16T04:28:22.575Z,7.07
2019-02-16T04:30:55.770Z,6.30
2019-02-16T04:33:29.841Z,5.70
2019-02-16T04:36:03.590Z,6.33
2019-02-16T04:38:37.450Z,6.83
2019-02-16T04:41:19.987Z,6.00
2019-02-16T04:43:53.498Z,7.93
2019-02-16T04:46:27.371Z,7.50
2019-02-16T04:49:11.670Z,6.27
2019-02-16T04:51:45.362Z,7.70
2019-02-16T04:54:19.257Z,7.17
2019-02-16T04:57:02.104Z,10.70
2019-02-16T04:59:51.008Z,7.33
2019-02-16T05:02:33.952Z,6.70
2019-02-16T05:05:16.780Z,6.97
2019-02-16T05:07:59.203Z,6.90
2019-02-16T05:10:33.099Z,6.93
2019-02-16T05:13:15.771Z,6.57
2019-02-16T05:15:49.385Z,7.37
2019-02-16T05:18:23.517Z,7.17
2019-02-16T05:21:06.026Z,6.90
2019-02-16T05:23:48.945Z,8.37
2019-02-16T05:26:31.628Z,7.47
2019-02-16T05:29:14.652Z,7.80
2019-02-16T05:31:57.293Z,7.17
2019-02-16T05:34:40.214Z,8.07
2019-02-16T05:37:13.415Z,7.10
2019-02-16T05:39:45.855Z,8.23
2019-02-16T05:42:28.944Z,7.10
2019-02-16T05:45:10.874Z,8.13
2019-02-16T05:47:46.160Z,8.47
2019-02-16T05:50:19.600Z,7.57
2019-02-16T05:52:54.653Z,7.57
2019-02-16T05:55:28.280Z,8.70
2019-02-16T05:58:01.611Z,7.67
2019-02-16T06:00:35.366Z,7.90
2019-02-16T06:03:08.495Z,7.27
2019-02-16T06:05:50.959Z,6.20
2019-02-16T06:08:24.172Z,7.93
2019-02-16T06:10:58.182Z,6.57
2019-02-16T06:13:31.840Z,7.87
2019-02-16T06:16:05.352Z,7.97
2019-02-16T06:18:39.143Z,6.73
2019-02-16T06:21:21.497Z,7.13
2019-02-16T06:23:54.905Z,6.33
2019-02-16T06:26:29.063Z,6.40
2019-02-16T06:29:02.486Z,8.77
2019-02-16T06:31:37.584Z,7.97
2019-02-16T06:34:10.951Z,7.37
2019-02-16T06:36:44.026Z,8.57
2019-02-16T06:39:26.227Z,10.80
2019-02-16T06:41:59.617Z,6.30
2019-02-16T06:44:33.511Z,5.90
2019-02-16T06:47:06.925Z,6.93
2019-02-16T06:49:40.828Z,9.27
2019-02-16T06:52:13.949Z,7.60
2019-02-16T06:54:48.060Z,7.20
2019-02-16T06:57:31.932Z,7.17
2019-02-16T07:00:06.026Z,7.17
2019-02-16T07:02:39.436Z,8.17
2019-02-16T07:05:12.531Z,10.37
2019-02-16T07:07:44.847Z,9.30
2019-02-16T07:10:18.249Z,10.87
2019-02-16T07:12:51.658Z,8.90
2019-02-16T07:15:33.842Z,7.27
2019-02-16T07:18:21.669Z,9.60
2019-02-16T07:20:55.069Z,9.17
2019-02-16T07:23:28.517Z,9.97
2019-02-16T07:26:02.377Z,9.77
2019-02-16T07:28:35.744Z,9.40
2019-02-16T07:31:09.293Z,10.47
2019-02-16T07:33:42.804Z,9.67
2019-02-16T07:36:16.107Z,10.40
2019-02-16T07:38:58.628Z,7.07
2019-02-16T07:41:41.540Z,7.33
2019-02-16T07:44:45.364Z,8.20
2019-02-16T07:47:43.530Z,9.90
2019-02-16T07:50:28.676Z,11.83
2019-02-16T07:53:38.494Z,10.83
2019-02-16T07:56:28.791Z,10.03
2019-02-16T07:59:38.378Z,12.67
2019-02-16T08:02:29.868Z,8.93
2019-02-16T08:05:27.930Z,10.40
2019-02-16T08:08:26.469Z,10.57
2019-02-16T08:11:36.847Z,11.23
2019-02-16T08:14:17.579Z,7.47
2019-02-16T08:17:15.658Z,10.73
2019-02-16T08:20:23.841Z,11.30
2019-02-16T08:23:40.559Z,9.03
2019-02-16T08:26:35.752Z,11.83
2019-02-16T08:29:34.568Z,10.73
2019-02-16T08:32:37.053Z,9.23
2019-02-16T08:35:47.601Z,9.50
2019-02-16T08:38:35.113Z,9.83
2019-02-16T08:41:36.004Z,10.67
2019-02-16T08:44:24.707Z,11.23
2019-02-16T08:47:15.730Z,10.33
2019-02-16T08:50:07.630Z,12.43
2019-02-16T08:53:10.691Z,10.00
2019-02-16T08:56:18.018Z,11.10
2019-02-16T08:59:29.925Z,12.10
2019-02-16T09:02:26.021Z,10.53
2019-02-16T09:05:12.771Z,10.83
2019-02-16T09:07:55.681Z,10.17
2019-02-16T09:10:54.952Z,10.50
2019-02-16T09:13:53.124Z,11.10
2019-02-16T09:16:50.329Z,9.30
2019-02-16T09:19:33.183Z,8.87
2019-02-16T09:22:41.197Z,9.43
2019-02-16T09:25:23.847Z,11.90
2019-02-16T09:28:19.109Z,12.20
2019-02-16T09:31:19.321Z,9.00
2019-02-16T09:34:21.510Z,12.70
2019-02-16T09:37:08.224Z,10.33
2019-02-16T09:40:17.196Z,11.70
2019-02-16T09:42:56.362Z,12.10
2019-02-16T09:45:47.416Z,12.27
2019-02-16T09:48:42.894Z,14.03
2019-02-16T09:51:50.422Z,13.93
2019-02-16T09:54:42.671Z,12.17
2019-02-16T09:57:35.358Z,11.03
2019-02-16T10:00:44.641Z,11.80
2019-02-16T10:03:40.231Z,16.00
2019-02-16T10:06:51.026Z,14.20
2019-02-16T10:09:32.336Z,14.07
2019-02-16T10:12:23.197Z,12.73
2019-02-16T10:15:15.539Z,12.77
2019-02-16T10:18:42.923Z,14.03
2019-02-16T10:22:04.466Z,18.50
2019-02-16T10:25:15.077Z,15.47
2019-02-16T10:28:00.238Z,13.83
2019-02-16T10:30:56.940Z,14.47
2019-02-16T10:33:57.397Z,14.87
2019-02-16T10:36:48.960Z,14.70
2019-02-16T10:40:06.974Z,13.67
2019-02-16T10:42:58.090Z,14.63
2019-02-16T10:46:05.950Z,15.87
2019-02-16T10:48:55.546Z,14.97
2019-02-16T10:51:47.974Z,15.30
2019-02-16T10:54:40.396Z,13.97
2019-02-16T10:57:50.721Z,18.30
2019-02-16T11:01:06.390Z,13.63
2019-02-16T11:03:57.148Z,16.83
2019-02-16T11:06:55.694Z,18.23
2019-02-16T11:09:54.033Z,15.20
2019-02-16T11:12:41.186Z,16.83
2019-02-16T11:15:49.114Z,14.73
2019-02-16T11:18:56.655Z,14.33
2019-02-16T11:21:58.919Z,15.83
2019-02-16T11:25:00.303Z,16.00
2019-02-16T11:28:08.105Z,15.80
2019-02-16T11:30:59.830Z,20.57
2019-02-16T11:34:07.487Z,16.97
2019-02-16T11:36:52.241Z,18.90
2019-02-16T11:39:33.120Z,16.90
2019-02-16T11:42:34.841Z,19.80
2019-02-16T11:45:26.400Z,17.10
2019-02-16T11:48:31.555Z,20.30
2019-02-16T11:51:55.895Z,18.47
2019-02-16T11:55:13.621Z,19.93
2019-02-16T11:58:09.673Z,19.70
2019-02-16T12:01:06.362Z,18.77
2019-02-16T12:04:13.741Z,20.40
2019-02-16T12:07:26.985Z,17.37
2019-02-16T12:10:10.307Z,18.20
2019-02-16T12:13:29.834Z,18.40
2019-02-16T12:16:12.395Z,19.33
2019-02-16T12:18:58.784Z,19.40
2019-02-16T12:21:51.174Z,20.03
2019-02-16T12:25:05.108Z,19.70
2019-02-16T12:27:54.175Z,16.77
2019-02-16T12:30:47.005Z,21.23
2019-02-16T12:33:33.115Z,20.23
2019-02-16T12:36:24.187Z,22.37
2019-02-16T12:39:26.380Z,21.63
2019-02-16T12:42:41.435Z,21.97
2019-02-16T12:45:27.185Z,20.97
2019-02-16T12:48:45.412Z,20.17
2019-02-16T12:52:10.567Z,22.47
2019-02-16T12:54:53.377Z,22.43
2019-02-16T12:57:37.029Z,22.77
2019-02-16T13:00:43.567Z,22.90
2019-02-16T13:03:58.140Z,21.90
2019-02-16T13:07:19.513Z,19.73
2019-02-16T13:10:15.419Z,21.03
2019-02-16T13:13:04.942Z,21.53
2019-02-16T13:15:57.401Z,18.47
2019-02-16T13:19:07.291Z,23.17
2019-02-16T13:21:48.968Z,22.53
2019-02-16T13:24:47.843Z,20.07
2019-02-16T13:27:48.960Z,20.50
2019-02-16T13:30:44.011Z,20.67
2019-02-16T13:33:52.923Z,21.37
2019-02-16T13:36:38.742Z,21.20
2019-02-16T13:39:53.902Z,22.53
2019-02-16T13:42:34.068Z,19.50
2019-02-16T13:45:29.555Z,23.67
2019-02-16T13:48:13.930Z,20.27
2019-02-16T13:51:18.867Z,22.52
2019-02-16T13:54:17.718Z,22.27
2019-02-16T13:57:25.257Z,25.70
2019-02-16T14:00:11.565Z,21.33
2019-02-16T14:03:03.011Z,21.37
2019-02-16T14:05:55.226Z,22.90
2019-02-16T14:08:39.576Z,21.10
2019-02-16T14:11:58.388Z,21.57
2019-02-16T14:14:51.557Z,21.33
2019-02-16T14:17:51.684Z,22.30
2019-02-16T14:20:25.120Z,21.80
2019-02-16T14:23:07.535Z,21.23
2019-02-16T14:25:45.971Z,24.57
2019-02-16T14:28:20.524Z,22.00
2019-02-16T14:30:53.621Z,22.07
2019-02-16T14:33:36.426Z,21.27
2019-02-16T14:36:19.059Z,21.20
2019-02-16T14:39:16.909Z,25.37
2019-02-16T14:41:50.172Z,23.93
2019-02-16T14:44:32.480Z,23.33
2019-02-16T14:47:16.776Z,24.33
2019-02-16T14:49:50.774Z,23.90
2019-02-16T14:52:33.243Z,22.03
2019-02-16T14:55:07.672Z,23.07
2019-02-16T14:57:41.252Z,22.20
2019-02-16T15:00:14.477Z,21.63
2019-02-16T15:02:58.362Z,22.67
2019-02-16T15:05:31.812Z,21.37
2019-02-16T15:08:05.838Z,21.17
2019-02-16T15:10:39.367Z,20.60
2019-02-16T15:13:13.246Z,25.87
2019-02-16T15:15:56.102Z,22.90
2019-02-16T15:18:38.791Z,21.33
2019-02-16T15:21:27.420Z,22.10
2019-02-16T15:24:00.843Z,23.17
2019-02-16T15:26:34.625Z,21.10
2019-02-16T15:29:09.252Z,24.90
2019-02-16T15:31:42.869Z,22.53
2019-02-16T15:34:16.333Z,23.57
2019-02-16T15:36:49.443Z,24.17
2019-02-16T15:39:31.918Z,21.23
2019-02-16T15:42:05.043Z,23.43
2019-02-16T15:44:38.939Z,22.73
2019-02-16T15:47:12.848Z,21.93
2019-02-16T15:49:55.508Z,22.97
2019-02-16T15:52:28.971Z,21.20
2019-02-16T15:55:03.340Z,24.37
2019-02-16T15:57:36.831Z,25.10
2019-02-16T16:00:24.121Z,26.27
2019-02-16T16:03:06.259Z,25.57
2019-02-16T16:05:39.706Z,24.93
2019-02-16T16:08:42.005Z,21.10
2019-02-16T16:11:20.765Z,22.00
2019-02-16T16:14:06.685Z,21.97
2019-02-16T16:16:53.450Z,22.63
2019-02-16T16:19:52.322Z,22.87
2019-02-16T16:22:47.178Z,23.57
2019-02-16T16:25:42.585Z,23.83
2019-02-16T16:28:33.335Z,25.63
2019-02-16T16:31:44.715Z,26.57
2019-02-16T16:34:45.048Z,26.80
2019-02-16T16:37:27.135Z,23.80
2019-02-16T16:40:28.434Z,25.50
2019-02-16T16:43:30.017Z,21.20
2019-02-16T16:46:51.233Z,25.97
2019-02-16T16:49:52.595Z,22.17
2019-02-16T16:52:54.581Z,20.80
2019-02-16T16:55:33.723Z,24.90
2019-02-16T16:58:29.094Z,27.60
2019-02-16T17:01:20.060Z,24.23
2019-02-16T17:04:08.914Z,25.83
2019-02-16T17:07:01.276Z,23.07
2019-02-16T17:09:51.168Z,26.17
2019-02-16T17:12:46.846Z,23.90
2019-02-16T17:15:39.802Z,25.73
2019-02-16T17:18:22.608Z,25.67
2019-02-16T17:21:14.971Z,25.87
2019-02-16T17:24:24.161Z,26.20
2019-02-16T17:30:24.929Z,27.03
2019-02-16T17:33:29.636Z,25.13
2019-02-16T17:36:21.733Z,24.03
2019-02-16T17:39:07.676Z,32.23
2019-02-16T17:41:49.096Z,32.20
2019-02-16T17:44:40.472Z,41.63
2019-02-16T17:47:36.398Z,41.43
2019-02-16T17:50:19.555Z,43.30
2019-02-16T17:53:14.949Z,46.20
2019-02-16T17:56:13.158Z,39.37
2019-02-16T17:59:01.646Z,35.47
2019-02-16T18:02:17.133Z,38.23
2019-02-16T18:05:15.646Z,35.73
2019-02-16T18:08:16.966Z,34.13
2019-02-16T18:11:09.500Z,31.73
2019-02-16T18:13:53.809Z,35.17
2019-02-16T18:16:47.206Z,31.70
2019-02-16T18:19:37.039Z,34.33
2019-02-16T18:22:29.407Z,33.07
2019-02-16T18:25:23.200Z,35.23
2019-02-16T18:28:10.602Z,33.03
2019-02-16T18:31:01.626Z,29.47
2019-02-16T18:33:57.869Z,31.93
2019-02-16T18:36:50.261Z,31.77
2019-02-16T18:39:31.696Z,33.87
2019-02-16T18:42:36.906Z,29.10
2019-02-16T18:45:57.561Z,34.47
2019-02-16T18:49:09.809Z,30.00
2019-02-16T18:52:02.254Z,31.37
2019-02-16T18:55:20.367Z,32.40
2019-02-16T18:58:05.542Z,32.00
2019-02-16T19:00:56.382Z,32.53
2019-02-16T19:03:41.033Z,31.67
2019-02-16T19:06:44.155Z,33.13
2019-02-16T19:10:08.544Z,30.40
2019-02-16T19:13:17.814Z,31.20
2019-02-16T19:16:03.782Z,31.57
2019-02-16T19:18:55.148Z,32.33
2019-02-16T19:21:47.170Z,30.03
2019-02-16T19:24:55.427Z,30.67
2019-02-16T19:28:15.233Z,29.30
2019-02-16T19:31:11.626Z,30.43
2019-02-16T19:34:12.623Z,31.33
2019-02-16T19:37:05.009Z,23.83
2019-02-16T19:40:16.024Z,30.97
2019-02-16T19:43:23.755Z,25.13
2019-02-16T19:46:12.264Z,28.87
2019-02-16T19:49:21.326Z,29.23
2019-02-16T19:52:01.033Z,31.47
2019-02-16T19:54:47.102Z,27.73
2019-02-16T19:57:38.013Z,31.23
2019-02-16T20:00:33.246Z,33.07
2019-02-16T20:03:31.045Z,30.27
2019-02-16T20:06:40.701Z,28.90
2019-02-16T20:09:22.400Z,32.80
2019-02-16T20:12:08.145Z,31.63
2019-02-16T20:14:50.093Z,26.77
2019-02-16T20:17:31.596Z,27.47
2019-02-16T20:20:41.808Z,31.03
2019-02-16T20:23:41.874Z,28.63
2019-02-16T20:26:37.075Z,28.23
2019-02-16T20:29:29.764Z,32.70
2019-02-16T20:32:34.517Z,34.47
2019-02-16T20:35:36.342Z,29.23
2019-02-16T20:38:36.648Z,30.53
2019-02-16T20:41:28.979Z,37.07
2019-02-16T20:44:47.079Z,36.27
2019-02-16T20:47:57.588Z,39.30
2019-02-16T20:50:56.062Z,38.07
2019-02-16T20:53:52.193Z,46.83
2019-02-16T20:56:47.278Z,43.90
2019-02-16T20:59:40.429Z,46.70
2019-02-16T21:02:51.578Z,40.47
2019-02-16T21:05:42.970Z,45.20
2019-02-16T21:08:35.514Z,44.30
2019-02-16T21:11:26.798Z,43.07
2019-02-16T21:14:22.622Z,45.33
2019-02-16T21:17:03.236Z,42.20
2019-02-16T21:20:10.982Z,40.97
2019-02-16T21:23:05.844Z,43.30
2019-02-16T21:26:36.494Z,39.67
2019-02-16T21:29:14.897Z,38.97
2019-02-16T21:32:04.336Z,40.60
2019-02-16T21:34:55.426Z,34.93
2019-02-16T21:37:55.890Z,41.43
2019-02-16T21:40:36.816Z,40.17
2019-02-16T21:43:36.473Z,42.03
2019-02-16T21:46:42.051Z,42.47
2019-02-16T21:49:33.241Z,43.17
2019-02-16T21:52:25.122Z,42.03
2019-02-16T21:55:35.389Z,41.97
2019-02-16T21:58:53.090Z,41.10
2019-02-16T22:01:47.023Z,42.70
2019-02-16T22:04:53.596Z,45.00
2019-02-16T22:08:04.852Z,42.60
2019-02-16T22:10:54.935Z,41.63
2019-02-16T22:13:28.863Z,42.27
2019-02-16T22:16:12.804Z,42.33
2019-02-16T22:18:46.585Z,42.10
2019-02-16T22:21:20.701Z,39.60
2019-02-16T22:24:03.126Z,39.87
2019-02-16T22:26:36.929Z,38.57
2019-02-16T22:29:10.991Z,39.60
2019-02-16T22:31:54.365Z,40.80
2019-02-16T22:34:36.761Z,38.47
2019-02-16T22:37:19.918Z,40.27
2019-02-16T22:40:02.541Z,37.60
2019-02-16T22:42:46.113Z,41.77
2019-02-16T22:45:19.375Z,39.20
2019-02-16T22:47:53.342Z,39.67
2019-02-16T22:50:27.046Z,35.93
2019-02-16T22:53:09.761Z,35.70
2019-02-16T22:55:42.903Z,34.77
2019-02-16T22:58:16.478Z,35.90
2019-02-16T23:00:51.754Z,40.77
2019-02-16T23:03:26.971Z,35.53
2019-02-16T23:06:00.437Z,36.23
2019-02-16T23:08:33.928Z,33.13
2019-02-16T23:11:07.551Z,33.57
2019-02-16T23:13:40.811Z,33.57
2019-02-16T23:16:14.330Z,32.70
2019-02-16T23:18:56.667Z,35.20
2019-02-16T23:21:39.047Z,32.17
2019-02-16T23:24:12.851Z,36.07
2019-02-16T23:26:46.477Z,34.60
2019-02-16T23:29:19.990Z,33.90
2019-02-16T23:31:53.905Z,33.67
2019-02-16T23:34:38.031Z,34.33
2019-02-16T23:37:11.411Z,35.57
2019-02-16T23:39:44.931Z,33.20
2019-02-16T23:42:18.380Z,38.03
2019-02-16T23:44:52.232Z,35.43
2019-02-16T23:47:25.757Z,38.43
2019-02-16T23:49:59.328Z,31.70
2019-02-16T23:52:32.852Z,32.53
2019-02-16T23:55:06.601Z,35.63
2019-02-16T23:57:40.547Z,36.70
